sensor_id;sensor_type;location;lat;lon;timestamp;P1;durP1;ratioP1;P2;durP2;ratioP2
59458;SDS011;45269;43.568;22.244;2023-03-31T00:02:16;26.83;;;20.40;;
59458;SDS011;45269;43.568;22.244;2023-03-31T00:04:46;25.95;;;20.20;;
59458;SDS011;45269;43.568;22.244;2023-03-31T00:07:16;28.92;;;21.60;;
59458;SDS011;45269;43.568;22.244;2023-03-31T00:09:46;26.48;;;20.33;;
59458;SDS011;45269;43.568;22.244;2023-03-31T00:12:15;28.02;;;20.90;;
59458;SDS011;45269;43.568;22.244;2023-03-31T00:14:41;39.85;;;30.17;;
59458;SDS011;45269;43.568;22.244;2023-03-31T00:17:07;33.03;;;25.13;;
59458;SDS011;45269;43.568;22.244;2023-03-31T00:19:32;28.40;;;21.88;;
59458;SDS011;45269;43.568;22.244;2023-03-31T00:21:57;23.13;;;17.13;;
59458;SDS011;45269;43.568;22.244;2023-03-31T00:24:26;22.35;;;16.00;;
59458;SDS011;45269;43.568;22.244;2023-03-31T00:26:52;19.40;;;15.70;;
59458;SDS011;45269;43.568;22.244;2023-03-31T00:29:17;20.63;;;14.80;;
59458;SDS011;45269;43.568;22.244;2023-03-31T00:31:42;20.80;;;14.60;;
59458;SDS011;45269;43.568;22.244;2023-03-31T00:34:07;22.48;;;16.23;;
59458;SDS011;45269;43.568;22.244;2023-03-31T00:36:33;23.73;;;16.90;;
59458;SDS011;45269;43.568;22.244;2023-03-31T00:39:02;23.67;;;18.15;;
59458;SDS011;45269;43.568;22.244;2023-03-31T00:41:31;23.13;;;17.20;;
59458;SDS011;45269;43.568;22.244;2023-03-31T00:44:15;20.65;;;13.95;;
59458;SDS011;45269;43.568;22.244;2023-03-31T00:46:58;20.65;;;15.18;;
59458;SDS011;45269;43.568;22.244;2023-03-31T00:52:11;19.00;;;14.40;;
59458;SDS011;45269;43.568;22.244;2023-03-31T00:54:38;19.63;;;14.43;;
59458;SDS011;45269;43.568;22.244;2023-03-31T00:57:04;18.70;;;12.20;;
59458;SDS011;45269;43.568;22.244;2023-03-31T00:59:31;15.15;;;9.77;;
59458;SDS011;45269;43.568;22.244;2023-03-31T01:01:58;12.43;;;9.45;;
59458;SDS011;45269;43.568;22.244;2023-03-31T01:04:26;13.18;;;9.70;;
59458;SDS011;45269;43.568;22.244;2023-03-31T01:06:55;10.48;;;7.60;;
59458;SDS011;45269;43.568;22.244;2023-03-31T01:09:25;9.77;;;6.80;;
59458;SDS011;45269;43.568;22.244;2023-03-31T01:11:54;10.15;;;6.57;;
59458;SDS011;45269;43.568;22.244;2023-03-31T01:14:20;9.80;;;6.50;;
59458;SDS011;45269;43.568;22.244;2023-03-31T01:16:46;12.95;;;6.68;;
59458;SDS011;45269;43.568;22.244;2023-03-31T01:19:25;11.68;;;8.07;;
59458;SDS011;45269;43.568;22.244;2023-03-31T01:22:35;8.13;;;6.03;;
59458;SDS011;45269;43.568;22.244;2023-03-31T01:32:41;9.90;;;6.20;;
59458;SDS011;45269;43.568;22.244;2023-03-31T01:35:54;7.45;;;5.68;;
59458;SDS011;45269;43.568;22.244;2023-03-31T01:40:38;9.00;;;6.95;;
59458;SDS011;45269;43.568;22.244;2023-03-31T01:43:22;13.05;;;7.88;;
59458;SDS011;45269;43.568;22.244;2023-03-31T01:50:58;8.75;;;5.15;;
59458;SDS011;45269;43.568;22.244;2023-03-31T01:55:58;9.88;;;6.70;;
59458;SDS011;45269;43.568;22.244;2023-03-31T01:58:26;13.40;;;7.30;;
59458;SDS011;45269;43.568;22.244;2023-03-31T02:01:01;8.63;;;4.80;;
59458;SDS011;45269;43.568;22.244;2023-03-31T02:03:31;6.30;;;4.35;;
59458;SDS011;45269;43.568;22.244;2023-03-31T02:05:59;6.40;;;4.70;;
59458;SDS011;45269;43.568;22.244;2023-03-31T02:08:30;9.32;;;6.40;;
59458;SDS011;45269;43.568;22.244;2023-03-31T02:10:58;9.48;;;5.57;;
59458;SDS011;45269;43.568;22.244;2023-03-31T02:13:24;8.50;;;4.68;;
59458;SDS011;45269;43.568;22.244;2023-03-31T02:15:52;9.48;;;6.20;;
59458;SDS011;45269;43.568;22.244;2023-03-31T02:18:19;8.35;;;5.88;;
59458;SDS011;45269;43.568;22.244;2023-03-31T02:20:46;8.90;;;6.28;;
59458;SDS011;45269;43.568;22.244;2023-03-31T02:23:13;8.73;;;6.38;;
59458;SDS011;45269;43.568;22.244;2023-03-31T02:25:45;9.98;;;6.50;;
59458;SDS011;45269;43.568;22.244;2023-03-31T02:28:12;10.75;;;7.32;;
59458;SDS011;45269;43.568;22.244;2023-03-31T02:33:17;9.00;;;5.25;;
59458;SDS011;45269;43.568;22.244;2023-03-31T02:35:43;7.50;;;5.07;;
59458;SDS011;45269;43.568;22.244;2023-03-31T02:38:08;5.18;;;3.70;;
59458;SDS011;45269;43.568;22.244;2023-03-31T02:40:35;5.82;;;4.45;;
59458;SDS011;45269;43.568;22.244;2023-03-31T02:43:01;6.53;;;4.82;;
59458;SDS011;45269;43.568;22.244;2023-03-31T02:45:43;7.05;;;3.92;;
59458;SDS011;45269;43.568;22.244;2023-03-31T02:48:10;7.35;;;4.68;;
59458;SDS011;45269;43.568;22.244;2023-03-31T02:59:30;7.15;;;5.05;;
59458;SDS011;45269;43.568;22.244;2023-03-31T03:01:30;7.78;;;6.50;;
59458;SDS011;45269;43.568;22.244;2023-03-31T03:17:09;13.15;;;7.57;;
59458;SDS011;45269;43.568;22.244;2023-03-31T03:19:36;10.48;;;7.47;;
59458;SDS011;45269;43.568;22.244;2023-03-31T03:22:01;10.43;;;7.05;;
59458;SDS011;45269;43.568;22.244;2023-03-31T03:24:27;12.00;;;7.53;;
59458;SDS011;45269;43.568;22.244;2023-03-31T03:26:58;13.38;;;7.85;;
59458;SDS011;45269;43.568;22.244;2023-03-31T03:29:24;12.27;;;8.57;;
59458;SDS011;45269;43.568;22.244;2023-03-31T03:31:51;12.27;;;7.72;;
59458;SDS011;45269;43.568;22.244;2023-03-31T03:34:16;14.73;;;8.63;;
59458;SDS011;45269;43.568;22.244;2023-03-31T03:36:42;15.32;;;9.10;;
59458;SDS011;45269;43.568;22.244;2023-03-31T03:39:08;14.02;;;8.77;;
59458;SDS011;45269;43.568;22.244;2023-03-31T03:41:33;13.05;;;7.78;;
59458;SDS011;45269;43.568;22.244;2023-03-31T03:43:59;6.50;;;4.55;;
59458;SDS011;45269;43.568;22.244;2023-03-31T03:46:25;9.57;;;5.50;;
59458;SDS011;45269;43.568;22.244;2023-03-31T03:48:50;15.88;;;9.98;;
59458;SDS011;45269;43.568;22.244;2023-03-31T03:51:16;6.93;;;5.00;;
59458;SDS011;45269;43.568;22.244;2023-03-31T03:53:41;14.30;;;8.23;;
59458;SDS011;45269;43.568;22.244;2023-03-31T03:56:06;20.23;;;13.70;;
59458;SDS011;45269;43.568;22.244;2023-03-31T03:58:32;38.05;;;25.90;;
59458;SDS011;45269;43.568;22.244;2023-03-31T04:00:57;26.80;;;19.67;;
59458;SDS011;45269;43.568;22.244;2023-03-31T04:03:22;26.00;;;17.60;;
59458;SDS011;45269;43.568;22.244;2023-03-31T04:05:48;14.48;;;9.73;;
59458;SDS011;45269;43.568;22.244;2023-03-31T04:08:14;13.30;;;8.30;;
59458;SDS011;45269;43.568;22.244;2023-03-31T04:10:46;10.60;;;7.50;;
59458;SDS011;45269;43.568;22.244;2023-03-31T04:13:16;22.17;;;14.00;;
59458;SDS011;45269;43.568;22.244;2023-03-31T04:15:42;26.60;;;17.58;;
59458;SDS011;45269;43.568;22.244;2023-03-31T04:18:07;20.33;;;12.88;;
59458;SDS011;45269;43.568;22.244;2023-03-31T04:20:35;22.42;;;12.70;;
59458;SDS011;45269;43.568;22.244;2023-03-31T04:23:02;50.85;;;39.17;;
59458;SDS011;45269;43.568;22.244;2023-03-31T04:25:29;167.40;;;127.82;;
59458;SDS011;45269;43.568;22.244;2023-03-31T04:27:55;51.20;;;39.33;;
59458;SDS011;45269;43.568;22.244;2023-03-31T04:30:20;66.93;;;50.78;;
59458;SDS011;45269;43.568;22.244;2023-03-31T04:32:49;53.72;;;39.53;;
59458;SDS011;45269;43.568;22.244;2023-03-31T04:35:15;17.13;;;12.57;;
59458;SDS011;45269;43.568;22.244;2023-03-31T04:37:42;13.85;;;9.68;;
59458;SDS011;45269;43.568;22.244;2023-03-31T04:40:07;44.65;;;32.90;;
59458;SDS011;45269;43.568;22.244;2023-03-31T04:42:34;25.85;;;19.45;;
59458;SDS011;45269;43.568;22.244;2023-03-31T04:44:59;95.22;;;71.82;;
59458;SDS011;45269;43.568;22.244;2023-03-31T04:47:25;278.08;;;219.90;;
59458;SDS011;45269;43.568;22.244;2023-03-31T04:49:50;107.43;;;84.40;;
59458;SDS011;45269;43.568;22.244;2023-03-31T04:52:15;89.07;;;63.53;;
59458;SDS011;45269;43.568;22.244;2023-03-31T04:54:40;35.83;;;25.17;;
59458;SDS011;45269;43.568;22.244;2023-03-31T04:57:06;46.75;;;27.90;;
59458;SDS011;45269;43.568;22.244;2023-03-31T04:59:31;42.45;;;29.98;;
59458;SDS011;45269;43.568;22.244;2023-03-31T05:01:57;61.78;;;47.22;;
59458;SDS011;45269;43.568;22.244;2023-03-31T05:04:22;183.43;;;104.03;;
59458;SDS011;45269;43.568;22.244;2023-03-31T05:06:47;298.80;;;167.40;;
59458;SDS011;45269;43.568;22.244;2023-03-31T05:09:13;243.73;;;154.38;;
59458;SDS011;45269;43.568;22.244;2023-03-31T05:11:38;190.55;;;122.50;;
59458;SDS011;45269;43.568;22.244;2023-03-31T05:14:03;54.78;;;37.75;;
59458;SDS011;45269;43.568;22.244;2023-03-31T05:16:28;16.42;;;12.27;;
59458;SDS011;45269;43.568;22.244;2023-03-31T05:18:54;16.75;;;10.98;;
59458;SDS011;45269;43.568;22.244;2023-03-31T05:21:19;8.23;;;5.15;;
59458;SDS011;45269;43.568;22.244;2023-03-31T05:23:45;13.73;;;8.27;;
59458;SDS011;45269;43.568;22.244;2023-03-31T05:26:11;7.55;;;4.15;;
59458;SDS011;45269;43.568;22.244;2023-03-31T05:28:37;25.90;;;20.55;;
59458;SDS011;45269;43.568;22.244;2023-03-31T05:31:03;40.72;;;30.70;;
59458;SDS011;45269;43.568;22.244;2023-03-31T05:33:29;51.60;;;41.20;;
59458;SDS011;45269;43.568;22.244;2023-03-31T05:35:54;66.32;;;54.15;;
59458;SDS011;45269;43.568;22.244;2023-03-31T05:38:20;45.95;;;36.50;;
59458;SDS011;45269;43.568;22.244;2023-03-31T05:40:46;35.28;;;29.60;;
59458;SDS011;45269;43.568;22.244;2023-03-31T05:43:11;31.00;;;20.73;;
59458;SDS011;45269;43.568;22.244;2023-03-31T05:45:36;25.67;;;18.30;;
59458;SDS011;45269;43.568;22.244;2023-03-31T05:48:02;24.48;;;17.85;;
59458;SDS011;45269;43.568;22.244;2023-03-31T05:50:27;15.80;;;11.10;;
59458;SDS011;45269;43.568;22.244;2023-03-31T05:52:52;15.30;;;9.70;;
59458;SDS011;45269;43.568;22.244;2023-03-31T05:55:18;10.35;;;8.20;;
59458;SDS011;45269;43.568;22.244;2023-03-31T05:57:43;16.27;;;9.48;;
59458;SDS011;45269;43.568;22.244;2023-03-31T06:00:09;19.00;;;12.93;;
59458;SDS011;45269;43.568;22.244;2023-03-31T06:02:35;17.77;;;10.55;;
59458;SDS011;45269;43.568;22.244;2023-03-31T06:05:01;9.27;;;6.00;;
59458;SDS011;45269;43.568;22.244;2023-03-31T06:07:26;19.40;;;11.23;;
59458;SDS011;45269;43.568;22.244;2023-03-31T06:09:51;12.98;;;6.78;;
59458;SDS011;45269;43.568;22.244;2023-03-31T06:12:17;10.98;;;4.35;;
59458;SDS011;45269;43.568;22.244;2023-03-31T06:14:42;11.13;;;6.07;;
59458;SDS011;45269;43.568;22.244;2023-03-31T06:17:07;11.50;;;7.07;;
59458;SDS011;45269;43.568;22.244;2023-03-31T06:19:32;8.65;;;5.47;;
59458;SDS011;45269;43.568;22.244;2023-03-31T06:21:58;8.20;;;4.60;;
59458;SDS011;45269;43.568;22.244;2023-03-31T06:24:23;11.70;;;7.13;;
59458;SDS011;45269;43.568;22.244;2023-03-31T06:26:48;37.97;;;26.00;;
59458;SDS011;45269;43.568;22.244;2023-03-31T06:29:14;14.70;;;8.90;;
59458;SDS011;45269;43.568;22.244;2023-03-31T06:31:39;14.13;;;7.55;;
59458;SDS011;45269;43.568;22.244;2023-03-31T06:34:04;9.35;;;4.78;;
59458;SDS011;45269;43.568;22.244;2023-03-31T06:36:30;12.75;;;7.90;;
59458;SDS011;45269;43.568;22.244;2023-03-31T06:38:56;12.65;;;7.15;;
59458;SDS011;45269;43.568;22.244;2023-03-31T06:41:21;9.88;;;7.20;;
59458;SDS011;45269;43.568;22.244;2023-03-31T06:43:46;9.45;;;7.15;;
59458;SDS011;45269;43.568;22.244;2023-03-31T06:46:12;27.15;;;20.58;;
59458;SDS011;45269;43.568;22.244;2023-03-31T06:48:37;26.48;;;17.52;;
59458;SDS011;45269;43.568;22.244;2023-03-31T06:51:03;8.93;;;5.72;;
59458;SDS011;45269;43.568;22.244;2023-03-31T06:53:29;13.00;;;7.43;;
59458;SDS011;45269;43.568;22.244;2023-03-31T06:55:55;12.65;;;8.77;;
59458;SDS011;45269;43.568;22.244;2023-03-31T06:58:20;38.28;;;27.50;;
59458;SDS011;45269;43.568;22.244;2023-03-31T07:00:46;27.50;;;18.10;;
59458;SDS011;45269;43.568;22.244;2023-03-31T07:03:12;19.00;;;13.32;;
59458;SDS011;45269;43.568;22.244;2023-03-31T07:05:37;17.88;;;14.27;;
59458;SDS011;45269;43.568;22.244;2023-03-31T07:08:03;17.40;;;12.98;;
59458;SDS011;45269;43.568;22.244;2023-03-31T07:10:29;14.90;;;12.43;;
59458;SDS011;45269;43.568;22.244;2023-03-31T07:12:55;21.52;;;16.40;;
59458;SDS011;45269;43.568;22.244;2023-03-31T07:15:20;14.73;;;10.20;;
59458;SDS011;45269;43.568;22.244;2023-03-31T07:17:46;17.20;;;12.20;;
59458;SDS011;45269;43.568;22.244;2023-03-31T07:20:15;18.67;;;14.48;;
59458;SDS011;45269;43.568;22.244;2023-03-31T07:22:41;64.03;;;44.83;;
59458;SDS011;45269;43.568;22.244;2023-03-31T07:25:07;30.52;;;26.25;;
59458;SDS011;45269;43.568;22.244;2023-03-31T07:27:32;14.23;;;10.27;;
59458;SDS011;45269;43.568;22.244;2023-03-31T07:29:58;14.32;;;9.52;;
59458;SDS011;45269;43.568;22.244;2023-03-31T07:32:23;22.45;;;15.80;;
59458;SDS011;45269;43.568;22.244;2023-03-31T07:34:48;14.10;;;9.23;;
59458;SDS011;45269;43.568;22.244;2023-03-31T07:37:14;13.40;;;7.22;;
59458;SDS011;45269;43.568;22.244;2023-03-31T07:39:39;21.67;;;15.82;;
59458;SDS011;45269;43.568;22.244;2023-03-31T07:42:05;32.45;;;26.95;;
59458;SDS011;45269;43.568;22.244;2023-03-31T07:44:33;12.63;;;8.20;;
59458;SDS011;45269;43.568;22.244;2023-03-31T07:46:59;10.38;;;6.25;;
59458;SDS011;45269;43.568;22.244;2023-03-31T07:49:28;21.33;;;11.35;;
59458;SDS011;45269;43.568;22.244;2023-03-31T07:51:54;8.00;;;6.30;;
59458;SDS011;45269;43.568;22.244;2023-03-31T07:54:19;11.68;;;6.45;;
59458;SDS011;45269;43.568;22.244;2023-03-31T07:56:45;12.07;;;8.50;;
59458;SDS011;45269;43.568;22.244;2023-03-31T07:59:10;12.88;;;7.65;;
59458;SDS011;45269;43.568;22.244;2023-03-31T08:01:36;10.30;;;5.95;;
59458;SDS011;45269;43.568;22.244;2023-03-31T08:04:01;14.00;;;8.93;;
59458;SDS011;45269;43.568;22.244;2023-03-31T08:06:27;8.57;;;7.35;;
59458;SDS011;45269;43.568;22.244;2023-03-31T08:08:53;12.95;;;10.00;;
59458;SDS011;45269;43.568;22.244;2023-03-31T08:11:19;12.18;;;9.07;;
59458;SDS011;45269;43.568;22.244;2023-03-31T08:13:45;16.83;;;10.65;;
59458;SDS011;45269;43.568;22.244;2023-03-31T08:16:11;21.33;;;14.25;;
59458;SDS011;45269;43.568;22.244;2023-03-31T08:18:36;20.55;;;14.68;;
59458;SDS011;45269;43.568;22.244;2023-03-31T08:21:01;20.60;;;16.05;;
59458;SDS011;45269;43.568;22.244;2023-03-31T08:23:27;19.55;;;15.70;;
59458;SDS011;45269;43.568;22.244;2023-03-31T08:25:52;12.30;;;8.80;;
59458;SDS011;45269;43.568;22.244;2023-03-31T08:28:17;20.63;;;14.60;;
59458;SDS011;45269;43.568;22.244;2023-03-31T08:30:43;15.00;;;10.43;;
59458;SDS011;45269;43.568;22.244;2023-03-31T08:33:08;13.95;;;8.13;;
59458;SDS011;45269;43.568;22.244;2023-03-31T08:35:36;14.15;;;10.68;;
59458;SDS011;45269;43.568;22.244;2023-03-31T08:38:02;19.25;;;11.95;;
59458;SDS011;45269;43.568;22.244;2023-03-31T08:40:27;16.42;;;9.75;;
59458;SDS011;45269;43.568;22.244;2023-03-31T08:42:57;12.52;;;10.43;;
59458;SDS011;45269;43.568;22.244;2023-03-31T08:45:28;27.70;;;19.25;;
59458;SDS011;45269;43.568;22.244;2023-03-31T08:47:59;28.37;;;21.10;;
59458;SDS011;45269;43.568;22.244;2023-03-31T08:50:27;12.00;;;9.80;;
59458;SDS011;45269;43.568;22.244;2023-03-31T08:52:58;23.45;;;16.15;;
59458;SDS011;45269;43.568;22.244;2023-03-31T08:55:29;24.35;;;19.95;;
59458;SDS011;45269;43.568;22.244;2023-03-31T08:57:59;19.45;;;15.32;;
59458;SDS011;45269;43.568;22.244;2023-03-31T09:00:25;17.95;;;15.60;;
59458;SDS011;45269;43.568;22.244;2023-03-31T09:15:31;25.48;;;19.38;;
59458;SDS011;45269;43.568;22.244;2023-03-31T09:18:00;15.30;;;10.27;;
59458;SDS011;45269;43.568;22.244;2023-03-31T09:20:33;16.30;;;11.07;;
59458;SDS011;45269;43.568;22.244;2023-03-31T09:23:05;17.77;;;12.07;;
59458;SDS011;45269;43.568;22.244;2023-03-31T09:25:37;10.88;;;8.00;;
59458;SDS011;45269;43.568;22.244;2023-03-31T09:28:03;42.90;;;31.02;;
59458;SDS011;45269;43.568;22.244;2023-03-31T09:30:33;9.48;;;7.10;;
59458;SDS011;45269;43.568;22.244;2023-03-31T09:35:30;14.50;;;11.07;;
59458;SDS011;45269;43.568;22.244;2023-03-31T09:37:57;17.40;;;13.30;;
59458;SDS011;45269;43.568;22.244;2023-03-31T09:40:23;11.98;;;8.63;;
59458;SDS011;45269;43.568;22.244;2023-03-31T09:42:59;8.73;;;6.55;;
59458;SDS011;45269;43.568;22.244;2023-03-31T09:45:25;12.98;;;9.43;;
59458;SDS011;45269;43.568;22.244;2023-03-31T09:47:52;17.42;;;13.32;;
59458;SDS011;45269;43.568;22.244;2023-03-31T09:50:19;12.85;;;7.45;;
59458;SDS011;45269;43.568;22.244;2023-03-31T09:52:46;29.40;;;17.88;;
59458;SDS011;45269;43.568;22.244;2023-03-31T09:55:17;11.52;;;7.70;;
59458;SDS011;45269;43.568;22.244;2023-03-31T09:57:44;15.68;;;9.80;;
59458;SDS011;45269;43.568;22.244;2023-03-31T10:02:51;10.00;;;5.60;;
59458;SDS011;45269;43.568;22.244;2023-03-31T10:05:21;6.05;;;3.88;;
59458;SDS011;45269;43.568;22.244;2023-03-31T10:07:49;12.68;;;6.95;;
59458;SDS011;45269;43.568;22.244;2023-03-31T10:10:20;9.48;;;6.78;;
59458;SDS011;45269;43.568;22.244;2023-03-31T10:12:49;10.90;;;8.57;;
59458;SDS011;45269;43.568;22.244;2023-03-31T10:15:20;7.90;;;5.15;;
59458;SDS011;45269;43.568;22.244;2023-03-31T10:17:45;9.60;;;5.97;;
59458;SDS011;45269;43.568;22.244;2023-03-31T10:20:19;11.40;;;6.65;;
59458;SDS011;45269;43.568;22.244;2023-03-31T10:22:45;10.95;;;5.55;;
59458;SDS011;45269;43.568;22.244;2023-03-31T10:25:15;8.60;;;6.18;;
59458;SDS011;45269;43.568;22.244;2023-03-31T10:27:41;28.80;;;20.52;;
59458;SDS011;45269;43.568;22.244;2023-03-31T10:30:10;13.02;;;9.55;;
59458;SDS011;45269;43.568;22.244;2023-03-31T10:32:42;13.98;;;7.43;;
59458;SDS011;45269;43.568;22.244;2023-03-31T10:35:14;8.13;;;6.15;;
59458;SDS011;45269;43.568;22.244;2023-03-31T10:37:44;7.05;;;6.25;;
59458;SDS011;45269;43.568;22.244;2023-03-31T10:40:18;9.20;;;7.38;;
59458;SDS011;45269;43.568;22.244;2023-03-31T10:42:45;8.63;;;6.95;;
59458;SDS011;45269;43.568;22.244;2023-03-31T10:47:51;10.73;;;9.02;;
59458;SDS011;45269;43.568;22.244;2023-03-31T10:50:17;8.95;;;5.80;;
59458;SDS011;45269;43.568;22.244;2023-03-31T10:52:43;14.30;;;9.68;;
59458;SDS011;45269;43.568;22.244;2023-03-31T10:55:13;16.45;;;11.18;;
59458;SDS011;45269;43.568;22.244;2023-03-31T11:00:11;9.52;;;5.95;;
59458;SDS011;45269;43.568;22.244;2023-03-31T11:05:28;9.57;;;6.97;;
59458;SDS011;45269;43.568;22.244;2023-03-31T11:08:04;11.45;;;8.57;;
59458;SDS011;45269;43.568;22.244;2023-03-31T11:13:00;9.05;;;6.90;;
59458;SDS011;45269;43.568;22.244;2023-03-31T11:20:40;8.13;;;5.90;;
59458;SDS011;45269;43.568;22.244;2023-03-31T11:33:34;7.67;;;4.00;;
59458;SDS011;45269;43.568;22.244;2023-03-31T11:41:28;7.18;;;5.15;;
59458;SDS011;45269;43.568;22.244;2023-03-31T11:43:57;12.70;;;7.85;;
59458;SDS011;45269;43.568;22.244;2023-03-31T11:46:45;7.03;;;5.07;;
59458;SDS011;45269;43.568;22.244;2023-03-31T11:49:19;13.00;;;8.43;;
59458;SDS011;45269;43.568;22.244;2023-03-31T11:51:48;11.60;;;9.10;;
59458;SDS011;45269;43.568;22.244;2023-03-31T11:54:23;6.03;;;5.32;;
59458;SDS011;45269;43.568;22.244;2023-03-31T11:56:49;8.55;;;5.85;;
59458;SDS011;45269;43.568;22.244;2023-03-31T11:59:15;9.40;;;5.28;;
59458;SDS011;45269;43.568;22.244;2023-03-31T12:04:22;8.10;;;4.60;;
59458;SDS011;45269;43.568;22.244;2023-03-31T12:06:52;8.00;;;6.32;;
59458;SDS011;45269;43.568;22.244;2023-03-31T12:09:25;7.95;;;6.15;;
59458;SDS011;45269;43.568;22.244;2023-03-31T12:14:25;10.82;;;7.00;;
59458;SDS011;45269;43.568;22.244;2023-03-31T12:16:52;45.40;;;25.02;;
59458;SDS011;45269;43.568;22.244;2023-03-31T12:21:48;26.92;;;13.43;;
59458;SDS011;45269;43.568;22.244;2023-03-31T12:24:14;39.72;;;21.70;;
59458;SDS011;45269;43.568;22.244;2023-03-31T12:29:26;18.45;;;11.55;;
59458;SDS011;45269;43.568;22.244;2023-03-31T12:31:54;6.95;;;5.03;;
59458;SDS011;45269;43.568;22.244;2023-03-31T12:34:21;7.75;;;5.20;;
59458;SDS011;45269;43.568;22.244;2023-03-31T12:44:59;7.38;;;6.10;;
59458;SDS011;45269;43.568;22.244;2023-03-31T12:49:58;49.10;;;29.42;;
59458;SDS011;45269;43.568;22.244;2023-03-31T12:52:38;177.75;;;93.90;;
59458;SDS011;45269;43.568;22.244;2023-03-31T12:57:35;31.70;;;16.38;;
59458;SDS011;45269;43.568;22.244;2023-03-31T13:02:31;10.82;;;4.95;;
59458;SDS011;45269;43.568;22.244;2023-03-31T13:04:57;15.68;;;10.20;;
59458;SDS011;45269;43.568;22.244;2023-03-31T13:09:54;7.60;;;5.13;;
59458;SDS011;45269;43.568;22.244;2023-03-31T13:12:21;13.55;;;8.63;;
59458;SDS011;45269;43.568;22.244;2023-03-31T13:14:48;6.80;;;4.50;;
59458;SDS011;45269;43.568;22.244;2023-03-31T13:19:47;57.08;;;29.15;;
59458;SDS011;45269;43.568;22.244;2023-03-31T13:22:31;15.43;;;9.32;;
59458;SDS011;45269;43.568;22.244;2023-03-31T13:27:49;11.30;;;6.18;;
59458;SDS011;45269;43.568;22.244;2023-03-31T13:33:07;8.43;;;4.60;;
59458;SDS011;45269;43.568;22.244;2023-03-31T13:35:34;10.63;;;7.05;;
59458;SDS011;45269;43.568;22.244;2023-03-31T13:40:53;8.48;;;4.97;;
59458;SDS011;45269;43.568;22.244;2023-03-31T13:56:29;8.27;;;4.88;;
59458;SDS011;45269;43.568;22.244;2023-03-31T14:06:57;10.60;;;6.03;;
59458;SDS011;45269;43.568;22.244;2023-03-31T14:09:26;13.23;;;7.75;;
59458;SDS011;45269;43.568;22.244;2023-03-31T14:11:52;8.38;;;4.55;;
59458;SDS011;45269;43.568;22.244;2023-03-31T14:14:18;12.00;;;4.22;;
59458;SDS011;45269;43.568;22.244;2023-03-31T14:29:48;6.78;;;4.95;;
59458;SDS011;45269;43.568;22.244;2023-03-31T14:35:30;9.93;;;5.37;;
59458;SDS011;45269;43.568;22.244;2023-03-31T14:37:33;6.70;;;3.70;;
59458;SDS011;45269;43.568;22.244;2023-03-31T14:39:59;7.47;;;4.97;;
59458;SDS011;45269;43.568;22.244;2023-03-31T14:42:31;6.57;;;3.50;;
59458;SDS011;45269;43.568;22.244;2023-03-31T14:45:02;4.07;;;2.90;;
59458;SDS011;45269;43.568;22.244;2023-03-31T14:47:28;8.18;;;4.53;;
59458;SDS011;45269;43.568;22.244;2023-03-31T14:52:28;6.70;;;4.07;;
59458;SDS011;45269;43.568;22.244;2023-03-31T14:54:53;11.07;;;7.05;;
59458;SDS011;45269;43.568;22.244;2023-03-31T14:57:19;9.20;;;7.43;;
59458;SDS011;45269;43.568;22.244;2023-03-31T14:59:48;10.55;;;3.60;;
59458;SDS011;45269;43.568;22.244;2023-03-31T15:02:25;7.82;;;4.05;;
59458;SDS011;45269;43.568;22.244;2023-03-31T15:04:54;7.95;;;5.35;;
59458;SDS011;45269;43.568;22.244;2023-03-31T15:07:20;8.05;;;4.90;;
59458;SDS011;45269;43.568;22.244;2023-03-31T15:09:47;8.88;;;5.75;;
59458;SDS011;45269;43.568;22.244;2023-03-31T15:12:14;8.85;;;6.57;;
59458;SDS011;45269;43.568;22.244;2023-03-31T15:14:41;13.05;;;9.35;;
59458;SDS011;45269;43.568;22.244;2023-03-31T15:19:34;17.65;;;8.27;;
59458;SDS011;45269;43.568;22.244;2023-03-31T15:22:15;12.57;;;6.57;;
59458;SDS011;45269;43.568;22.244;2023-03-31T15:24:43;7.43;;;3.40;;
59458;SDS011;45269;43.568;22.244;2023-03-31T15:29:39;13.45;;;5.95;;
59458;SDS011;45269;43.568;22.244;2023-03-31T15:32:07;11.48;;;6.30;;
59458;SDS011;45269;43.568;22.244;2023-03-31T15:34:35;15.48;;;8.38;;
59458;SDS011;45269;43.568;22.244;2023-03-31T15:37:01;17.95;;;11.48;;
59458;SDS011;45269;43.568;22.244;2023-03-31T15:39:30;11.23;;;8.55;;
59458;SDS011;45269;43.568;22.244;2023-03-31T15:41:56;10.88;;;7.05;;
59458;SDS011;45269;43.568;22.244;2023-03-31T15:49:38;24.67;;;17.48;;
59458;SDS011;45269;43.568;22.244;2023-03-31T15:52:18;27.45;;;24.02;;
59458;SDS011;45269;43.568;22.244;2023-03-31T15:54:44;13.27;;;11.88;;
59458;SDS011;45269;43.568;22.244;2023-03-31T15:57:09;25.63;;;22.55;;
59458;SDS011;45269;43.568;22.244;2023-03-31T15:59:45;21.83;;;19.60;;
59458;SDS011;45269;43.568;22.244;2023-03-31T16:02:13;30.50;;;27.25;;
59458;SDS011;45269;43.568;22.244;2023-03-31T16:04:40;17.23;;;12.65;;
59458;SDS011;45269;43.568;22.244;2023-03-31T16:07:06;14.25;;;11.98;;
59458;SDS011;45269;43.568;22.244;2023-03-31T16:12:17;15.55;;;11.00;;
59458;SDS011;45269;43.568;22.244;2023-03-31T16:20:05;35.92;;;31.50;;
59458;SDS011;45269;43.568;22.244;2023-03-31T16:22:35;18.57;;;14.23;;
59458;SDS011;45269;43.568;22.244;2023-03-31T16:25:06;24.93;;;15.67;;
59458;SDS011;45269;43.568;22.244;2023-03-31T16:27:35;58.25;;;37.08;;
59458;SDS011;45269;43.568;22.244;2023-03-31T16:32:26;93.55;;;72.63;;
59458;SDS011;45269;43.568;22.244;2023-03-31T16:37:17;68.07;;;51.78;;
59458;SDS011;45269;43.568;22.244;2023-03-31T16:39:42;56.90;;;48.75;;
59458;SDS011;45269;43.568;22.244;2023-03-31T16:42:08;43.08;;;35.65;;
59458;SDS011;45269;43.568;22.244;2023-03-31T16:44:33;53.85;;;38.45;;
59458;SDS011;45269;43.568;22.244;2023-03-31T16:46:58;55.47;;;44.47;;
59458;SDS011;45269;43.568;22.244;2023-03-31T16:49:23;58.03;;;44.13;;
59458;SDS011;45269;43.568;22.244;2023-03-31T16:51:49;165.52;;;97.88;;
59458;SDS011;45269;43.568;22.244;2023-03-31T16:54:14;261.20;;;145.75;;
59458;SDS011;45269;43.568;22.244;2023-03-31T16:56:39;72.65;;;53.22;;
59458;SDS011;45269;43.568;22.244;2023-03-31T16:59:05;54.80;;;45.42;;
59458;SDS011;45269;43.568;22.244;2023-03-31T17:01:32;143.52;;;73.30;;
59458;SDS011;45269;43.568;22.244;2023-03-31T17:03:58;315.38;;;151.35;;
59458;SDS011;45269;43.568;22.244;2023-03-31T17:06:23;102.88;;;70.78;;
59458;SDS011;45269;43.568;22.244;2023-03-31T17:08:48;49.60;;;41.67;;
59458;SDS011;45269;43.568;22.244;2023-03-31T17:11:13;44.63;;;36.90;;
59458;SDS011;45269;43.568;22.244;2023-03-31T17:13:40;54.13;;;42.88;;
59458;SDS011;45269;43.568;22.244;2023-03-31T17:16:06;50.60;;;29.08;;
59458;SDS011;45269;43.568;22.244;2023-03-31T17:18:31;64.07;;;49.40;;
59458;SDS011;45269;43.568;22.244;2023-03-31T17:21:04;99.35;;;89.07;;
59458;SDS011;45269;43.568;22.244;2023-03-31T17:23:30;67.70;;;53.40;;
59458;SDS011;45269;43.568;22.244;2023-03-31T17:25:55;65.85;;;56.40;;
59458;SDS011;45269;43.568;22.244;2023-03-31T17:28:21;74.03;;;56.97;;
59458;SDS011;45269;43.568;22.244;2023-03-31T17:30:46;81.75;;;61.97;;
59458;SDS011;45269;43.568;22.244;2023-03-31T17:33:15;93.28;;;71.05;;
59458;SDS011;45269;43.568;22.244;2023-03-31T17:35:41;95.95;;;74.93;;
59458;SDS011;45269;43.568;22.244;2023-03-31T17:38:07;109.72;;;88.80;;